createdAt,value
2017-12-22T00:01:12.272Z,6.60
2017-12-22T00:03:40.791Z,6.50
2017-12-22T00:06:08.261Z,6.60
2017-12-22T00:08:35.759Z,6.60
2017-12-22T00:11:03.269Z,6.60
2017-12-22T00:13:31.531Z,6.60
2017-12-22T00:15:59.062Z,6.60
2017-12-22T00:18:27.311Z,6.60
2017-12-22T00:20:54.789Z,6.60
2017-12-22T00:23:22.302Z,6.60
2017-12-22T00:25:49.793Z,6.60
2017-12-22T00:28:18.040Z,6.60
2017-12-22T00:30:45.513Z,6.60
2017-12-22T00:33:13.005Z,6.60
2017-12-22T00:35:41.267Z,6.60
2017-12-22T00:38:09.535Z,6.60
2017-12-22T00:40:37.021Z,6.60
2017-12-22T00:43:05.286Z,6.60
2017-12-22T00:45:32.789Z,6.60
2017-12-22T00:48:00.267Z,6.60
2017-12-22T00:50:27.810Z,6.60
2017-12-22T00:52:55.287Z,6.60
2017-12-22T00:55:22.754Z,6.60
2017-12-22T00:57:50.228Z,6.60
2017-12-22T01:00:17.695Z,6.60
2017-12-22T01:02:45.169Z,6.60
2017-12-22T01:05:12.666Z,6.60
2017-12-22T01:07:40.926Z,6.60
2017-12-22T01:10:08.394Z,6.60
2017-12-22T01:12:35.891Z,6.60
2017-12-22T01:15:03.387Z,6.60
2017-12-22T01:17:36.490Z,6.60
2017-12-22T01:20:03.980Z,6.60
2017-12-22T01:22:31.451Z,6.60
2017-12-22T01:24:59.706Z,6.70
2017-12-22T01:27:27.201Z,6.60
2017-12-22T01:29:55.450Z,6.60
2017-12-22T01:32:22.918Z,6.60
2017-12-22T01:34:50.441Z,6.60
2017-12-22T01:37:17.940Z,6.70
2017-12-22T01:39:45.429Z,6.60
2017-12-22T01:42:12.943Z,6.70
2017-12-22T01:44:40.485Z,6.70
2017-12-22T01:47:08.804Z,6.60
2017-12-22T01:49:36.268Z,6.60
2017-12-22T01:52:03.798Z,6.60
2017-12-22T01:54:31.283Z,6.60
2017-12-22T01:56:58.778Z,6.60
2017-12-22T01:59:26.262Z,6.60
2017-12-22T02:01:53.778Z,6.60
2017-12-22T02:04:21.280Z,6.60
2017-12-22T02:06:49.535Z,6.60
2017-12-22T02:09:17.022Z,6.60
2017-12-22T02:11:45.282Z,6.60
2017-12-22T02:14:12.774Z,6.60
2017-12-22T02:16:41.042Z,6.60
2017-12-22T02:19:09.297Z,6.60
2017-12-22T02:21:36.804Z,6.60
2017-12-22T02:24:04.314Z,6.60
2017-12-22T02:26:31.806Z,6.60
2017-12-22T02:28:59.276Z,6.70
2017-12-22T02:31:26.757Z,6.60
2017-12-22T02:33:54.265Z,6.60
2017-12-22T02:36:21.742Z,6.60
2017-12-22T02:38:49.222Z,6.60
2017-12-22T02:41:17.458Z,6.60
2017-12-22T02:43:44.931Z,6.60
2017-12-22T02:46:12.397Z,6.60
2017-12-22T02:48:39.869Z,6.60
2017-12-22T02:51:07.357Z,6.70
2017-12-22T02:53:35.666Z,6.60
2017-12-22T02:56:03.168Z,6.60
2017-12-22T02:58:30.634Z,6.60
2017-12-22T03:00:58.142Z,6.70
2017-12-22T03:03:25.631Z,6.60
2017-12-22T03:05:53.115Z,6.60
2017-12-22T03:08:20.589Z,6.60
2017-12-22T03:10:48.099Z,6.70
2017-12-22T03:13:15.603Z,6.60
2017-12-22T03:15:43.122Z,6.60
2017-12-22T03:18:10.617Z,6.60
2017-12-22T03:20:38.087Z,6.60
2017-12-22T03:23:05.572Z,6.70
2017-12-22T03:25:33.042Z,6.70
2017-12-22T03:28:00.519Z,6.60
2017-12-22T03:30:27.983Z,6.70
2017-12-22T03:32:56.240Z,6.70
2017-12-22T03:35:23.712Z,6.60
2017-12-22T03:37:51.214Z,6.70
2017-12-22T03:40:18.685Z,6.70
2017-12-22T03:42:46.159Z,6.70
2017-12-22T03:45:13.649Z,6.70
2017-12-22T03:47:41.118Z,6.70
2017-12-22T03:50:08.596Z,6.70
2017-12-22T03:52:36.850Z,6.70
2017-12-22T03:55:04.315Z,6.70
2017-12-22T03:57:31.793Z,6.70
2017-12-22T04:00:00.079Z,6.70
2017-12-22T04:02:28.351Z,6.70
2017-12-22T04:04:55.825Z,6.70
2017-12-22T04:07:24.066Z,6.70
2017-12-22T04:09:51.528Z,6.70
2017-12-22T04:12:19.005Z,6.70
2017-12-22T04:14:46.475Z,6.70
2017-12-22T04:17:13.938Z,6.70
2017-12-22T04:19:41.425Z,6.70
2017-12-22T04:22:09.684Z,6.70
2017-12-22T04:24:37.945Z,6.70
2017-12-22T04:27:05.482Z,6.70
2017-12-22T04:29:32.961Z,6.70
2017-12-22T04:32:00.456Z,6.70
2017-12-22T04:34:27.945Z,6.70
2017-12-22T04:36:56.177Z,6.70
2017-12-22T04:39:23.671Z,6.70
2017-12-22T04:41:51.137Z,6.70
2017-12-22T04:44:19.392Z,6.80
2017-12-22T04:46:46.876Z,6.70
2017-12-22T04:49:15.166Z,6.70
2017-12-22T04:51:43.406Z,6.70
2017-12-22T04:54:10.889Z,6.70
2017-12-22T04:56:38.388Z,6.70
2017-12-22T04:59:05.880Z,6.70
2017-12-22T05:01:33.388Z,6.70
2017-12-22T05:04:00.866Z,6.70
2017-12-22T05:06:29.099Z,6.70
2017-12-22T05:08:56.569Z,6.70
2017-12-22T05:11:24.061Z,6.70
2017-12-22T05:13:51.550Z,6.70
2017-12-22T05:16:19.074Z,6.80
2017-12-22T05:18:46.539Z,6.70
2017-12-22T05:21:14.390Z,6.80
2017-12-22T05:23:41.942Z,6.80
2017-12-22T05:26:09.415Z,6.80
2017-12-22T05:28:36.916Z,6.70
2017-12-22T05:31:05.154Z,6.80
2017-12-22T05:33:32.645Z,6.70
2017-12-22T05:36:00.163Z,6.70
2017-12-22T05:38:27.641Z,6.80
2017-12-22T05:40:55.109Z,6.80
2017-12-22T05:43:22.625Z,6.70
2017-12-22T05:45:50.085Z,6.70
2017-12-22T05:48:17.585Z,6.70
2017-12-22T05:50:45.105Z,6.70
2017-12-22T05:53:13.362Z,6.70
2017-12-22T05:55:40.850Z,6.70
2017-12-22T05:58:09.104Z,6.70
2017-12-22T06:00:36.597Z,6.70
2017-12-22T06:03:04.091Z,6.70
2017-12-22T06:05:31.624Z,6.70
2017-12-22T06:07:59.136Z,6.80
2017-12-22T06:10:26.625Z,6.80
2017-12-22T06:12:54.903Z,6.80
2017-12-22T06:15:22.429Z,6.80
2017-12-22T06:17:49.931Z,6.80
2017-12-22T06:20:17.414Z,6.80
2017-12-22T06:22:45.649Z,6.80
2017-12-22T06:25:13.129Z,6.80
2017-12-22T06:27:40.626Z,6.80
2017-12-22T06:30:08.867Z,6.80
2017-12-22T06:32:36.364Z,6.80
2017-12-22T06:35:04.618Z,6.80
2017-12-22T06:37:32.085Z,6.80
2017-12-22T06:39:59.560Z,6.80
2017-12-22T06:42:27.826Z,6.80
2017-12-22T06:44:55.298Z,6.80
2017-12-22T06:47:23.562Z,6.80
2017-12-22T06:49:51.051Z,6.80
2017-12-22T06:52:19.290Z,6.80
2017-12-22T06:54:46.783Z,6.80
2017-12-22T06:57:14.282Z,6.80
2017-12-22T06:59:41.757Z,6.80
2017-12-22T07:02:09.245Z,6.80
2017-12-22T07:04:36.726Z,6.80
2017-12-22T07:07:04.190Z,6.80
2017-12-22T07:09:31.686Z,6.90
2017-12-22T07:11:59.168Z,6.80
2017-12-22T07:14:26.692Z,6.80
2017-12-22T07:16:54.939Z,6.90
2017-12-22T07:19:22.426Z,6.80
2017-12-22T07:21:49.902Z,6.90
2017-12-22T07:24:18.138Z,6.90
2017-12-22T07:26:45.631Z,6.90
2017-12-22T07:29:13.150Z,6.90
2017-12-22T07:31:40.577Z,6.90
2017-12-22T07:34:08.818Z,6.90
2017-12-22T07:36:36.313Z,6.90
2017-12-22T07:39:04.551Z,6.90
2017-12-22T07:41:32.033Z,6.90
2017-12-22T07:43:59.509Z,7.00
2017-12-22T07:46:26.992Z,6.90
2017-12-22T07:48:55.218Z,6.90
2017-12-22T07:54:14.521Z,7.00
2017-12-22T07:56:41.988Z,6.90
2017-12-22T07:59:09.506Z,7.00
2017-12-22T08:01:36.991Z,7.00
2017-12-22T08:04:05.276Z,7.00
2017-12-22T08:06:32.752Z,7.00
2017-12-22T08:09:00.268Z,7.00
2017-12-22T08:11:27.741Z,7.00
2017-12-22T08:13:55.226Z,7.00
2017-12-22T08:16:22.709Z,7.00
2017-12-22T08:18:50.169Z,7.00
2017-12-22T08:21:17.644Z,7.00
2017-12-22T08:23:45.882Z,7.00
2017-12-22T08:26:13.353Z,7.00
2017-12-22T08:28:40.830Z,7.10
2017-12-22T08:31:08.328Z,7.00
2017-12-22T08:33:36.566Z,7.10
2017-12-22T08:36:04.042Z,7.10
2017-12-22T08:38:31.551Z,7.10
2017-12-22T08:40:59.823Z,7.10
2017-12-22T08:43:27.288Z,7.10
2017-12-22T08:45:54.799Z,7.10
2017-12-22T08:48:22.269Z,7.10
2017-12-22T08:50:49.785Z,7.10
2017-12-22T08:53:17.256Z,7.10
2017-12-22T08:55:44.737Z,7.10
2017-12-22T08:58:12.232Z,7.10
2017-12-22T09:00:39.718Z,7.10
2017-12-22T09:03:07.981Z,7.10
2017-12-22T09:05:35.448Z,7.10
2017-12-22T09:08:03.721Z,7.10
2017-12-22T09:10:31.266Z,7.10
2017-12-22T09:12:58.737Z,7.10
2017-12-22T09:15:26.206Z,7.10
2017-12-22T09:17:53.687Z,7.20
2017-12-22T09:20:21.917Z,7.20
2017-12-22T09:22:49.403Z,7.10
2017-12-22T09:25:16.869Z,7.20
2017-12-22T09:27:45.138Z,7.20
2017-12-22T09:30:12.671Z,7.20
2017-12-22T09:32:40.209Z,7.20
2017-12-22T09:35:07.658Z,7.20
2017-12-22T09:37:35.899Z,7.20
2017-12-22T09:40:03.378Z,7.20
2017-12-22T09:42:30.867Z,7.20
2017-12-22T09:44:59.108Z,7.30
2017-12-22T09:47:26.585Z,7.20
2017-12-22T09:49:54.082Z,7.30
2017-12-22T09:52:22.313Z,7.30
2017-12-22T09:54:49.783Z,7.30
2017-12-22T09:57:17.273Z,7.30
2017-12-22T09:59:44.756Z,7.30
2017-12-22T10:02:12.250Z,7.30
2017-12-22T10:04:39.723Z,7.30
2017-12-22T10:07:07.205Z,7.30
2017-12-22T10:09:34.658Z,7.30
2017-12-22T10:12:02.169Z,7.40
2017-12-22T10:14:29.636Z,7.40
2017-12-22T10:16:57.113Z,7.40
2017-12-22T10:19:24.581Z,7.40
2017-12-22T10:21:52.060Z,7.40
2017-12-22T10:24:19.528Z,7.40
2017-12-22T10:26:47.055Z,7.40
2017-12-22T10:29:14.572Z,7.40
2017-12-22T10:31:42.055Z,7.40
2017-12-22T10:34:10.300Z,7.40
2017-12-22T10:36:37.772Z,7.40
2017-12-22T10:39:05.270Z,7.50
2017-12-22T10:41:35.828Z,7.50
2017-12-22T10:44:03.318Z,7.50
2017-12-22T10:46:30.832Z,7.50
2017-12-22T10:48:58.324Z,7.50
2017-12-22T10:51:25.901Z,7.50
2017-12-22T10:53:53.378Z,7.50
2017-12-22T10:56:20.854Z,7.60
2017-12-22T10:58:48.378Z,7.60
2017-12-22T11:01:15.850Z,7.60
2017-12-22T11:03:43.320Z,7.60
2017-12-22T11:06:10.813Z,7.60
2017-12-22T11:08:38.303Z,7.60
2017-12-22T11:11:05.792Z,7.60
2017-12-22T11:13:33.310Z,7.60
2017-12-22T11:16:01.608Z,7.70
2017-12-22T11:18:29.075Z,7.60
2017-12-22T11:20:56.554Z,7.70
2017-12-22T11:23:24.041Z,7.70
2017-12-22T11:25:51.498Z,7.70
2017-12-22T11:28:18.987Z,7.70
2017-12-22T11:30:46.462Z,7.70
2017-12-22T11:33:14.712Z,7.70
2017-12-22T11:35:42.177Z,7.70
2017-12-22T11:38:09.659Z,7.70
2017-12-22T11:40:37.120Z,7.70
2017-12-22T11:43:04.602Z,7.70
2017-12-22T11:45:32.849Z,7.70
2017-12-22T11:48:00.340Z,7.70
2017-12-22T11:50:27.815Z,7.80
2017-12-22T11:52:56.059Z,7.80
2017-12-22T11:55:23.526Z,7.80
2017-12-22T11:57:51.002Z,7.80
2017-12-22T12:00:19.254Z,7.80
2017-12-22T12:02:46.735Z,7.80
2017-12-22T12:05:14.213Z,7.80
2017-12-22T12:07:42.451Z,7.80
2017-12-22T12:10:09.927Z,7.80
2017-12-22T12:12:37.623Z,7.80
2017-12-22T12:15:05.869Z,7.90
2017-12-22T12:17:33.357Z,7.90
2017-12-22T12:20:00.817Z,7.90
2017-12-22T12:22:28.300Z,7.90
2017-12-22T12:24:55.805Z,7.90
2017-12-22T12:27:23.295Z,7.90
2017-12-22T12:29:50.776Z,7.90
2017-12-22T12:32:19.029Z,7.90
2017-12-22T12:34:46.522Z,7.90
2017-12-22T12:37:14.765Z,7.90
2017-12-22T12:39:42.449Z,7.90
2017-12-22T12:42:09.926Z,7.90
2017-12-22T12:44:38.175Z,7.90
2017-12-22T12:47:05.659Z,7.90
2017-12-22T12:49:33.141Z,7.90
2017-12-22T12:52:01.384Z,7.90
2017-12-22T12:54:28.888Z,7.90
2017-12-22T12:56:57.135Z,7.90
2017-12-22T12:59:28.157Z,7.90
2017-12-22T13:01:55.645Z,7.90
2017-12-22T13:04:24.631Z,7.90
2017-12-22T13:06:52.109Z,7.90
2017-12-22T13:09:19.604Z,7.90
2017-12-22T13:11:47.079Z,7.90
2017-12-22T13:14:14.563Z,8.00
2017-12-22T13:16:42.051Z,8.00
2017-12-22T13:19:09.531Z,7.90
2017-12-22T13:21:37.026Z,7.90
2017-12-22T13:24:04.504Z,8.00
2017-12-22T13:52:35.497Z,23.80
2017-12-22T13:55:03.055Z,23.20
2017-12-22T14:06:18.098Z,9.50
2017-12-22T14:08:45.558Z,8.80
2017-12-22T14:11:13.017Z,8.50
2017-12-22T14:13:40.475Z,8.50
2017-12-22T14:16:07.942Z,8.40
2017-12-22T14:18:35.424Z,8.30
2017-12-22T14:21:02.890Z,8.40
2017-12-22T14:23:31.131Z,8.40
2017-12-22T14:25:58.599Z,8.30
2017-12-22T14:28:26.061Z,8.30
2017-12-22T14:30:53.533Z,8.20
2017-12-22T14:33:20.997Z,8.20
2017-12-22T14:35:48.473Z,8.30
2017-12-22T14:38:16.221Z,8.30
2017-12-22T14:40:43.682Z,8.30
2017-12-22T14:43:11.159Z,8.30
2017-12-22T14:45:38.628Z,8.30
2017-12-22T14:48:06.096Z,8.30
2017-12-22T14:50:33.567Z,8.30
2017-12-22T14:53:01.834Z,8.30
2017-12-22T14:55:29.297Z,8.30
2017-12-22T14:57:56.763Z,8.40
2017-12-22T15:00:24.265Z,8.30
2017-12-22T15:02:51.733Z,8.30
2017-12-22T15:05:19.196Z,8.30
2017-12-22T15:07:46.671Z,8.30
2017-12-22T15:10:14.137Z,8.30
2017-12-22T15:12:41.619Z,8.30
2017-12-22T15:15:09.073Z,8.30
2017-12-22T15:17:36.552Z,8.30
2017-12-22T15:20:04.012Z,8.30
2017-12-22T15:22:31.493Z,8.30
2017-12-22T15:24:59.726Z,8.30
2017-12-22T15:27:27.263Z,8.30
2017-12-22T15:29:54.666Z,8.30
2017-12-22T15:32:22.137Z,8.30
2017-12-22T15:34:49.600Z,8.30
2017-12-22T15:37:17.065Z,8.30
2017-12-22T15:39:44.530Z,8.30
2017-12-22T15:42:12.004Z,8.30
2017-12-22T15:44:39.489Z,8.30
2017-12-22T15:47:07.766Z,8.30
2017-12-22T15:49:35.247Z,8.30
2017-12-22T15:52:02.716Z,8.30
2017-12-22T15:54:30.177Z,8.30
2017-12-22T15:56:57.657Z,8.30
2017-12-22T15:59:25.196Z,8.30
2017-12-22T16:01:53.406Z,8.30
2017-12-22T16:04:21.624Z,8.30
2017-12-22T16:06:49.113Z,8.30
2017-12-22T16:09:17.332Z,8.30
2017-12-22T16:11:44.798Z,8.30
2017-12-22T16:14:14.031Z,8.30
2017-12-22T16:16:41.473Z,8.30
2017-12-22T16:19:08.956Z,8.30
2017-12-22T16:21:36.452Z,8.30
2017-12-22T16:24:03.918Z,8.30
2017-12-22T16:26:31.485Z,8.30
2017-12-22T16:28:59.009Z,8.30
2017-12-22T16:31:26.465Z,8.30
2017-12-22T16:33:53.950Z,8.30
2017-12-22T16:36:22.184Z,8.30
2017-12-22T16:38:49.654Z,8.30
2017-12-22T16:41:17.113Z,8.30
2017-12-22T16:43:44.639Z,8.30
2017-12-22T16:46:12.046Z,8.30
2017-12-22T16:48:39.540Z,8.30
2017-12-22T16:51:07.824Z,8.30
2017-12-22T16:56:27.193Z,8.30
2017-12-22T16:58:54.673Z,8.30
2017-12-22T17:01:22.901Z,8.30
2017-12-22T17:03:50.375Z,8.30
2017-12-22T17:06:17.887Z,8.30
2017-12-22T17:08:46.119Z,8.30
2017-12-22T17:11:13.632Z,8.20
2017-12-22T17:13:41.861Z,8.30
2017-12-22T17:16:09.407Z,8.30
2017-12-22T17:18:37.606Z,8.30
2017-12-22T17:21:05.848Z,8.30
2017-12-22T17:23:33.353Z,8.30
2017-12-22T17:26:00.867Z,8.30
2017-12-22T17:28:28.380Z,8.30
2017-12-22T17:30:55.908Z,8.20
2017-12-22T17:33:23.416Z,8.20
2017-12-22T17:35:50.932Z,8.20
2017-12-22T17:38:18.373Z,8.30
2017-12-22T17:40:46.661Z,8.30
2017-12-22T17:43:14.157Z,8.30
2017-12-22T17:45:41.662Z,8.30
2017-12-22T17:48:09.181Z,8.30
2017-12-22T17:50:36.661Z,8.30
2017-12-22T17:53:04.137Z,8.30
2017-12-22T17:55:31.618Z,8.30
2017-12-22T17:57:59.866Z,8.30
2017-12-22T18:00:27.378Z,8.30
2017-12-22T18:02:55.647Z,8.30
2017-12-22T18:05:23.937Z,8.30
2017-12-22T18:07:52.214Z,8.30
2017-12-22T18:10:20.457Z,8.30
2017-12-22T18:12:47.971Z,8.30
2017-12-22T18:15:15.496Z,8.30
2017-12-22T18:17:43.007Z,8.30
2017-12-22T18:20:10.547Z,8.30
2017-12-22T18:22:38.776Z,8.30
2017-12-22T18:25:06.296Z,8.30
2017-12-22T18:27:34.522Z,8.30
2017-12-22T18:30:01.987Z,8.30
2017-12-22T18:32:29.445Z,8.30
2017-12-22T18:34:56.974Z,8.30
2017-12-22T18:37:24.498Z,8.30
2017-12-22T18:39:52.015Z,8.30
2017-12-22T18:42:19.466Z,8.30
2017-12-22T18:44:46.942Z,8.30
2017-12-22T18:47:14.461Z,8.30
2017-12-22T18:49:41.977Z,8.30
2017-12-22T18:52:09.424Z,8.30
2017-12-22T18:54:36.945Z,8.30
2017-12-22T18:57:04.456Z,8.30
2017-12-22T18:59:31.964Z,8.30
2017-12-22T19:01:59.483Z,8.30
2017-12-22T19:04:26.996Z,8.30
2017-12-22T19:06:54.481Z,8.30
2017-12-22T19:09:22.768Z,8.30
2017-12-22T19:11:51.047Z,8.30
2017-12-22T19:14:19.322Z,8.30
2017-12-22T19:16:47.623Z,8.30
2017-12-22T19:19:15.174Z,8.30
2017-12-22T19:21:44.188Z,8.30
2017-12-22T19:24:11.707Z,8.30
2017-12-22T19:26:39.218Z,8.30
2017-12-22T19:29:06.790Z,8.30
2017-12-22T19:31:34.297Z,8.30
2017-12-22T19:34:01.868Z,8.30
2017-12-22T19:36:29.379Z,8.30
2017-12-22T19:38:56.892Z,8.30
2017-12-22T19:41:24.415Z,8.30
2017-12-22T19:43:51.865Z,8.30
2017-12-22T19:46:19.336Z,8.30
2017-12-22T19:48:46.840Z,8.30
2017-12-22T19:51:14.297Z,8.30
2017-12-22T19:53:41.796Z,8.30
2017-12-22T19:56:10.086Z,8.30
2017-12-22T19:58:37.565Z,8.30
2017-12-22T20:01:05.097Z,8.30
2017-12-22T20:03:33.370Z,8.30
2017-12-22T20:06:00.889Z,8.30
2017-12-22T20:08:28.387Z,8.30
2017-12-22T20:10:55.908Z,8.20
2017-12-22T20:13:23.453Z,8.30
2017-12-22T20:15:50.993Z,8.30
2017-12-22T20:18:19.276Z,8.00
2017-12-22T20:20:47.564Z,8.00
2017-12-22T20:23:15.845Z,8.00
2017-12-22T20:25:44.151Z,8.00
2017-12-22T20:28:11.656Z,7.90
2017-12-22T20:30:48.083Z,7.90
2017-12-22T20:33:15.605Z,8.00
2017-12-22T20:35:43.115Z,8.10
2017-12-22T20:38:10.637Z,8.20
2017-12-22T20:40:38.137Z,8.20
2017-12-22T20:43:05.653Z,8.30
2017-12-22T20:45:33.162Z,8.30
2017-12-22T20:48:00.668Z,8.30
2017-12-22T20:50:28.212Z,8.30
2017-12-22T20:52:55.721Z,8.30
2017-12-22T20:55:24.002Z,8.30
2017-12-22T20:57:52.278Z,8.20
2017-12-22T21:00:19.808Z,8.20
2017-12-22T21:02:47.359Z,8.10
2017-12-22T21:05:14.868Z,8.00
2017-12-22T21:07:42.400Z,8.10
2017-12-22T21:10:09.911Z,8.20
2017-12-22T21:12:38.176Z,8.30
2017-12-22T21:15:05.667Z,8.30
2017-12-22T21:17:33.190Z,8.20
2017-12-22T21:20:00.775Z,8.30
2017-12-22T21:22:29.084Z,8.30
2017-12-22T21:24:56.595Z,8.20
2017-12-22T21:27:24.104Z,8.20
2017-12-22T21:29:51.615Z,8.20
2017-12-22T21:32:19.121Z,8.30
2017-12-22T21:34:47.406Z,8.20
2017-12-22T21:37:15.676Z,8.30
2017-12-22T21:39:43.916Z,8.30
2017-12-22T21:42:11.432Z,8.20
2017-12-22T21:44:38.966Z,8.30
2017-12-22T21:47:06.466Z,8.30
2017-12-22T21:49:34.750Z,8.30
2017-12-22T21:52:02.266Z,8.30
2017-12-22T21:54:29.781Z,8.30
2017-12-22T21:56:57.285Z,8.30
2017-12-22T21:59:24.795Z,8.20
2017-12-22T22:01:53.129Z,8.30
2017-12-22T22:04:20.602Z,8.20
2017-12-22T22:06:48.109Z,8.20
2017-12-22T22:09:15.619Z,8.30
2017-12-22T22:11:43.128Z,8.20
2017-12-22T22:14:10.650Z,8.20
2017-12-22T22:16:38.915Z,8.30
2017-12-22T22:19:06.429Z,8.20
2017-12-22T22:21:34.711Z,8.10
2017-12-22T22:24:03.004Z,8.10
2017-12-22T22:26:31.278Z,8.20
2017-12-22T22:28:59.564Z,8.20
2017-12-22T22:31:27.820Z,8.30
2017-12-22T22:33:55.336Z,8.20
2017-12-22T22:36:22.846Z,8.20
2017-12-22T22:38:50.321Z,8.20
2017-12-22T22:41:18.592Z,8.20
2017-12-22T22:43:46.106Z,8.20
2017-12-22T22:46:13.631Z,8.10
2017-12-22T22:48:41.841Z,7.80
2017-12-22T22:51:09.324Z,7.80
2017-12-22T22:53:36.833Z,7.80
2017-12-22T22:56:05.092Z,7.80
2017-12-22T22:58:32.608Z,7.80
2017-12-22T23:01:00.828Z,7.80
2017-12-22T23:03:28.339Z,7.80
2017-12-22T23:05:56.628Z,7.90
2017-12-22T23:08:24.900Z,7.90
2017-12-22T23:10:53.202Z,7.80
2017-12-22T23:13:21.427Z,7.70
2017-12-22T23:15:48.950Z,7.70
2017-12-22T23:18:16.398Z,7.80
2017-12-22T23:20:44.633Z,7.80
2017-12-22T23:23:12.922Z,7.70
2017-12-22T23:25:40.450Z,7.70
2017-12-22T23:28:07.964Z,7.70
2017-12-22T23:30:35.425Z,7.80
2017-12-22T23:33:02.928Z,7.70
2017-12-22T23:35:30.454Z,7.60
2017-12-22T23:37:57.963Z,7.70
2017-12-22T23:40:25.468Z,7.80
2017-12-22T23:42:53.750Z,7.70
2017-12-22T23:45:21.247Z,7.70
2017-12-22T23:47:49.504Z,7.60
2017-12-22T23:50:16.967Z,7.60
2017-12-22T23:52:44.433Z,7.70
2017-12-22T23:55:11.892Z,7.80
2017-12-22T23:57:39.418Z,7.90
